createdAt,value
2018-06-23T00:00:25.171Z,1019.73
2018-06-23T00:01:25.159Z,1019.72
2018-06-23T00:02:25.133Z,1019.68
2018-06-23T00:03:25.116Z,1019.68
2018-06-23T00:04:25.100Z,1019.72
2018-06-23T00:05:25.077Z,1019.74
2018-06-23T00:06:25.061Z,1019.74
2018-06-23T00:07:25.071Z,1019.72
2018-06-23T00:08:25.030Z,1019.70
2018-06-23T00:09:25.004Z,1019.71
2018-06-23T00:10:24.985Z,1019.70
2018-06-23T00:11:24.970Z,1019.75
2018-06-23T00:12:24.952Z,1019.78
2018-06-23T00:13:24.969Z,1019.76
2018-06-23T00:14:24.965Z,1019.78
2018-06-23T00:15:24.902Z,1019.75
2018-06-23T00:16:24.882Z,1019.72
2018-06-23T00:17:24.860Z,1019.73
2018-06-23T00:18:24.841Z,1019.70
2018-06-23T00:19:24.824Z,1019.67
2018-06-23T00:20:24.816Z,1019.69
2018-06-23T00:21:24.797Z,1019.70
2018-06-23T00:22:24.769Z,1019.69
2018-06-23T00:23:24.756Z,1019.71
2018-06-23T00:24:24.755Z,1019.67
2018-06-23T00:25:24.716Z,1019.71
2018-06-23T00:26:24.715Z,1019.74
2018-06-23T00:27:24.680Z,1019.73
2018-06-23T00:28:24.663Z,1019.74
2018-06-23T00:29:24.645Z,1019.69
2018-06-23T00:30:24.626Z,1019.75
2018-06-23T00:31:24.607Z,1019.75
2018-06-23T00:32:24.598Z,1019.73
2018-06-23T00:33:24.578Z,1019.71
2018-06-23T00:34:24.554Z,1019.73
2018-06-23T00:35:24.533Z,1019.74
2018-06-23T00:36:24.526Z,1019.68
2018-06-23T00:37:24.496Z,1019.66
2018-06-23T00:38:24.479Z,1019.67
2018-06-23T00:39:24.459Z,1019.63
2018-06-23T00:40:24.441Z,1019.65
2018-06-23T00:41:24.449Z,1019.63
2018-06-23T00:42:24.405Z,1019.63
2018-06-23T00:43:24.388Z,1019.61
2018-06-23T00:44:24.375Z,1019.66
2018-06-23T00:45:24.352Z,1019.65
2018-06-23T00:46:24.332Z,1019.65
2018-06-23T00:47:24.315Z,1019.66
2018-06-23T00:48:24.298Z,1019.65
2018-06-23T00:49:24.282Z,1019.66
2018-06-23T00:50:24.263Z,1019.64
2018-06-23T00:51:24.240Z,1019.62
2018-06-23T00:52:24.227Z,1019.60
2018-06-23T00:53:24.206Z,1019.56
2018-06-23T00:54:24.209Z,1019.60
2018-06-23T00:55:24.172Z,1019.57
2018-06-23T00:56:24.160Z,1019.56
2018-06-23T00:57:24.169Z,1019.57
2018-06-23T00:58:24.118Z,1019.59
2018-06-23T00:59:24.098Z,1019.60
2018-06-23T01:00:24.084Z,1019.58
2018-06-23T01:01:24.060Z,1019.56
2018-06-23T01:02:24.039Z,1019.59
2018-06-23T01:03:24.020Z,1019.57
2018-06-23T01:04:24.005Z,1019.58
2018-06-23T01:05:23.984Z,1019.56
2018-06-23T01:06:23.969Z,1019.54
2018-06-23T01:07:23.992Z,1019.56
2018-06-23T01:08:23.941Z,1019.57
2018-06-23T01:09:23.958Z,1019.57
2018-06-23T01:10:23.896Z,1019.58
2018-06-23T01:11:23.874Z,1019.59
2018-06-23T01:12:23.861Z,1019.55
2018-06-23T01:13:23.839Z,1019.54
2018-06-23T01:14:23.817Z,1019.52
2018-06-23T01:15:23.801Z,1019.53
2018-06-23T01:16:23.787Z,1019.58
2018-06-23T01:17:23.766Z,1019.55
2018-06-23T01:18:23.746Z,1019.56
2018-06-23T01:19:23.727Z,1019.56
2018-06-23T01:20:23.709Z,1019.55
2018-06-23T01:21:23.687Z,1019.56
2018-06-23T01:22:23.675Z,1019.58
2018-06-23T01:23:23.658Z,1019.57
2018-06-23T01:24:23.638Z,1019.58
2018-06-23T01:25:23.617Z,1019.57
2018-06-23T01:26:23.599Z,1019.58
2018-06-23T01:27:23.590Z,1019.62
2018-06-23T01:28:23.561Z,1019.57
2018-06-23T01:29:23.542Z,1019.60
2018-06-23T01:30:23.524Z,1019.61
2018-06-23T01:31:23.505Z,1019.59
2018-06-23T01:32:23.491Z,1019.61
2018-06-23T01:33:23.469Z,1019.61
2018-06-23T01:34:23.452Z,1019.61
2018-06-23T01:35:23.432Z,1019.58
2018-06-23T01:36:23.420Z,1019.54
2018-06-23T01:37:23.399Z,1019.58
2018-06-23T01:38:23.377Z,1019.55
2018-06-23T01:39:23.360Z,1019.52
2018-06-23T01:40:23.342Z,1019.53
2018-06-23T01:41:23.323Z,1019.54
2018-06-23T01:42:23.302Z,1019.53
2018-06-23T01:43:23.293Z,1019.53
2018-06-23T01:44:23.307Z,1019.50
2018-06-23T01:45:23.284Z,1019.50
2018-06-23T01:46:23.249Z,1019.50
2018-06-23T01:47:23.222Z,1019.44
2018-06-23T01:48:23.236Z,1019.44
2018-06-23T01:49:23.175Z,1019.43
2018-06-23T01:50:23.154Z,1019.44
2018-06-23T01:51:23.136Z,1019.42
2018-06-23T01:52:23.125Z,1019.44
2018-06-23T01:53:23.101Z,1019.45
2018-06-23T01:54:23.078Z,1019.43
2018-06-23T01:55:23.064Z,1019.41
2018-06-23T01:56:23.046Z,1019.38
2018-06-23T01:57:23.028Z,1019.41
2018-06-23T01:58:23.007Z,1019.41
2018-06-23T01:59:22.989Z,1019.40
2018-06-23T02:00:22.971Z,1019.40
2018-06-23T02:01:22.956Z,1019.40
2018-06-23T02:02:22.932Z,1019.44
2018-06-23T02:03:22.926Z,1019.35
2018-06-23T02:04:22.897Z,1019.38
2018-06-23T02:05:22.880Z,1019.42
2018-06-23T02:06:22.858Z,1019.37
2018-06-23T02:07:22.844Z,1019.37
2018-06-23T02:08:22.823Z,1019.35
2018-06-23T02:09:22.805Z,1019.32
2018-06-23T02:10:22.783Z,1019.33
2018-06-23T02:11:22.765Z,1019.34
2018-06-23T02:12:22.749Z,1019.35
2018-06-23T02:13:22.730Z,1019.32
2018-06-23T02:14:22.710Z,1019.37
2018-06-23T02:15:22.689Z,1019.38
2018-06-23T02:16:22.675Z,1019.35
2018-06-23T02:17:22.655Z,1019.31
2018-06-23T02:18:22.635Z,1019.30
2018-06-23T02:19:22.622Z,1019.29
2018-06-23T02:20:23.429Z,1019.30
2018-06-23T02:21:22.586Z,1019.27
2018-06-23T02:22:22.560Z,1019.28
2018-06-23T02:23:22.561Z,1019.33
2018-06-23T02:24:22.526Z,1019.28
2018-06-23T02:25:22.506Z,1019.25
2018-06-23T02:26:22.484Z,1019.27
2018-06-23T02:27:22.471Z,1019.27
2018-06-23T02:28:22.459Z,1019.26
2018-06-23T02:29:22.440Z,1019.22
2018-06-23T02:30:22.410Z,1019.20
2018-06-23T02:31:22.395Z,1019.16
2018-06-23T02:32:22.380Z,1019.14
2018-06-23T02:33:22.355Z,1019.16
2018-06-23T02:34:22.335Z,1019.13
2018-06-23T02:35:22.317Z,1019.13
2018-06-23T02:36:22.316Z,1019.16
2018-06-23T02:37:22.315Z,1019.20
2018-06-23T02:38:22.263Z,1019.16
2018-06-23T02:39:22.240Z,1019.14
2018-06-23T02:40:22.221Z,1019.17
2018-06-23T02:41:22.211Z,1019.14
2018-06-23T02:42:22.184Z,1019.17
2018-06-23T02:43:22.165Z,1019.20
2018-06-23T02:44:22.150Z,1019.16
2018-06-23T02:45:22.126Z,1019.20
2018-06-23T02:46:22.110Z,1019.22
2018-06-23T02:47:22.096Z,1019.21
2018-06-23T02:48:22.082Z,1019.23
2018-06-23T02:49:22.077Z,1019.18
2018-06-23T02:50:22.033Z,1019.22
2018-06-23T02:51:22.057Z,1019.12
2018-06-23T02:52:22.013Z,1019.16
2018-06-23T02:53:22.000Z,1019.20
2018-06-23T02:54:21.955Z,1019.22
2018-06-23T02:55:21.935Z,1019.20
2018-06-23T02:56:21.924Z,1019.21
2018-06-23T02:57:21.897Z,1019.19
2018-06-23T02:58:21.877Z,1019.28
2018-06-23T02:59:21.864Z,1019.28
2018-06-23T03:00:21.842Z,1019.24
2018-06-23T03:01:21.820Z,1019.28
2018-06-23T03:02:21.799Z,1019.24
2018-06-23T03:03:21.792Z,1019.22
2018-06-23T03:04:21.770Z,1019.21
2018-06-23T03:05:21.747Z,1019.20
2018-06-23T03:06:21.731Z,1019.17
2018-06-23T03:07:21.706Z,1019.14
2018-06-23T03:08:21.688Z,1019.14
2018-06-23T03:09:21.669Z,1019.19
2018-06-23T03:10:21.646Z,1019.22
2018-06-23T03:11:21.632Z,1019.15
2018-06-23T03:12:21.608Z,1019.13
2018-06-23T03:13:21.596Z,1019.13
2018-06-23T03:14:21.575Z,1019.16
2018-06-23T03:15:21.552Z,1019.16
2018-06-23T03:16:21.531Z,1019.15
2018-06-23T03:17:21.514Z,1019.12
2018-06-23T03:18:21.494Z,1019.10
2018-06-23T03:19:21.479Z,1019.12
2018-06-23T03:20:21.457Z,1019.13
2018-06-23T03:21:21.492Z,1019.12
2018-06-23T03:22:21.416Z,1019.14
2018-06-23T03:23:21.398Z,1019.13
2018-06-23T03:24:21.382Z,1019.11
2018-06-23T03:25:21.366Z,1019.09
2018-06-23T03:26:21.338Z,1019.15
2018-06-23T03:27:21.326Z,1019.18
2018-06-23T03:28:21.301Z,1019.20
2018-06-23T03:29:21.282Z,1019.20
2018-06-23T03:30:21.279Z,1019.16
2018-06-23T03:31:21.246Z,1019.18
2018-06-23T03:32:21.228Z,1019.15
2018-06-23T03:33:21.205Z,1019.18
2018-06-23T03:34:21.194Z,1019.16
2018-06-23T03:35:21.172Z,1019.20
2018-06-23T03:36:21.148Z,1019.23
2018-06-23T03:37:21.129Z,1019.26
2018-06-23T03:38:21.113Z,1019.28
2018-06-23T03:39:21.095Z,1019.23
2018-06-23T03:40:21.072Z,1019.25
2018-06-23T03:41:21.053Z,1019.27
2018-06-23T03:42:21.033Z,1019.25
2018-06-23T03:43:21.020Z,1019.32
2018-06-23T03:44:21.003Z,1019.24
2018-06-23T03:45:20.975Z,1019.29
2018-06-23T03:46:20.962Z,1019.27
2018-06-23T03:47:20.942Z,1019.27
2018-06-23T03:48:20.944Z,1019.28
2018-06-23T03:49:20.898Z,1019.31
2018-06-23T03:50:20.881Z,1019.27
2018-06-23T03:51:20.866Z,1019.35
2018-06-23T03:52:20.844Z,1019.32
2018-06-23T03:53:20.823Z,1019.34
2018-06-23T03:54:20.806Z,1019.32
2018-06-23T03:55:20.794Z,1019.33
2018-06-23T03:56:20.768Z,1019.32
2018-06-23T03:57:20.746Z,1019.34
2018-06-23T03:58:20.739Z,1019.33
2018-06-23T03:59:20.709Z,1019.37
2018-06-23T04:00:20.690Z,1019.34
2018-06-23T04:01:20.672Z,1019.35
2018-06-23T04:02:20.655Z,1019.36
2018-06-23T04:03:20.634Z,1019.32
2018-06-23T04:04:20.620Z,1019.33
2018-06-23T04:05:20.596Z,1019.33
2018-06-23T04:06:20.591Z,1019.33
2018-06-23T04:07:20.557Z,1019.34
2018-06-23T04:08:20.546Z,1019.35
2018-06-23T04:09:20.518Z,1019.36
2018-06-23T04:10:20.500Z,1019.32
2018-06-23T04:11:20.515Z,1019.34
2018-06-23T04:12:20.461Z,1019.27
2018-06-23T04:13:20.463Z,1019.25
2018-06-23T04:14:20.429Z,1019.29
2018-06-23T04:15:20.405Z,1019.28
2018-06-23T04:16:20.387Z,1019.22
2018-06-23T04:17:20.374Z,1019.20
2018-06-23T04:18:20.366Z,1019.20
2018-06-23T04:19:20.329Z,1019.18
2018-06-23T04:20:20.314Z,1019.18
2018-06-23T04:21:20.290Z,1019.18
2018-06-23T04:22:20.275Z,1019.20
2018-06-23T04:23:20.253Z,1019.17
2018-06-23T04:24:20.232Z,1019.19
2018-06-23T04:25:20.217Z,1019.20
2018-06-23T04:26:20.199Z,1019.24
2018-06-23T04:27:20.179Z,1019.19
2018-06-23T04:28:20.164Z,1019.18
2018-06-23T04:29:20.212Z,1019.20
2018-06-23T04:30:20.122Z,1019.17
2018-06-23T04:31:20.105Z,1019.18
2018-06-23T04:32:20.085Z,1019.17
2018-06-23T04:33:20.072Z,1019.12
2018-06-23T04:34:20.044Z,1019.12
2018-06-23T04:35:20.032Z,1019.10
2018-06-23T04:36:20.008Z,1019.09
2018-06-23T04:37:19.991Z,1019.14
2018-06-23T04:38:19.973Z,1019.15
2018-06-23T04:39:19.949Z,1019.17
2018-06-23T04:40:19.931Z,1019.20
2018-06-23T04:41:19.914Z,1019.18
2018-06-23T04:42:19.909Z,1019.18
2018-06-23T04:43:19.873Z,1019.15
2018-06-23T04:44:19.856Z,1019.18
2018-06-23T04:45:19.835Z,1019.21
2018-06-23T04:46:19.822Z,1019.19
2018-06-23T04:47:19.799Z,1019.20
2018-06-23T04:48:19.779Z,1019.20
2018-06-23T04:49:19.763Z,1019.20
2018-06-23T04:50:19.749Z,1019.18
2018-06-23T04:51:19.720Z,1019.19
2018-06-23T04:52:19.704Z,1019.15
2018-06-23T04:53:19.690Z,1019.07
2018-06-23T04:54:19.673Z,1019.13
2018-06-23T04:55:19.647Z,1019.12
2018-06-23T04:56:19.628Z,1019.16
2018-06-23T04:57:19.610Z,1019.11
2018-06-23T04:58:19.588Z,1019.08
2018-06-23T04:59:19.572Z,1019.08
2018-06-23T05:00:19.560Z,1019.08
2018-06-23T05:01:19.591Z,1019.04
2018-06-23T05:02:19.513Z,1019.02
2018-06-23T05:03:19.497Z,1019.02
2018-06-23T05:04:19.511Z,1019.03
2018-06-23T05:05:19.468Z,1019.06
2018-06-23T05:06:19.436Z,1019.01
2018-06-23T05:07:19.424Z,1019.01
2018-06-23T05:08:19.401Z,1019.05
2018-06-23T05:09:19.383Z,1019.05
2018-06-23T05:10:19.360Z,1019.08
2018-06-23T05:11:19.343Z,1019.06
2018-06-23T05:12:19.334Z,1019.14
2018-06-23T05:13:19.311Z,1019.09
2018-06-23T05:14:19.287Z,1019.10
2018-06-23T05:15:19.267Z,1019.10
2018-06-23T05:16:19.248Z,1019.11
2018-06-23T05:17:19.232Z,1019.10
2018-06-23T05:18:19.258Z,1019.09
2018-06-23T05:19:19.199Z,1019.15
2018-06-23T05:20:19.238Z,1019.07
2018-06-23T05:21:19.154Z,1019.15
2018-06-23T05:22:19.134Z,1019.09
2018-06-23T05:23:19.117Z,1019.08
2018-06-23T05:24:19.096Z,1019.06
2018-06-23T05:25:19.079Z,1019.10
2018-06-23T05:26:19.071Z,1019.04
2018-06-23T05:27:19.046Z,1019.08
2018-06-23T05:28:19.022Z,1019.07
2018-06-23T05:29:19.005Z,1019.10
2018-06-23T05:30:18.989Z,1019.13
2018-06-23T05:31:18.990Z,1019.14
2018-06-23T05:32:18.947Z,1019.16
2018-06-23T05:33:18.933Z,1019.20
2018-06-23T05:34:18.909Z,1019.18
2018-06-23T05:35:18.908Z,1019.19
2018-06-23T05:36:18.876Z,1019.18
2018-06-23T05:37:18.854Z,1019.17
2018-06-23T05:38:18.836Z,1019.16
2018-06-23T05:39:18.819Z,1019.14
2018-06-23T05:40:18.799Z,1019.11
2018-06-23T05:41:18.778Z,1019.15
2018-06-23T05:42:18.764Z,1019.15
2018-06-23T05:43:18.739Z,1019.17
2018-06-23T05:44:18.733Z,1019.18
2018-06-23T05:45:18.703Z,1019.21
2018-06-23T05:46:18.691Z,1019.24
2018-06-23T05:47:18.665Z,1019.26
2018-06-23T05:48:18.647Z,1019.26
2018-06-23T05:49:18.629Z,1019.31
2018-06-23T05:50:18.608Z,1019.28
2018-06-23T05:51:18.638Z,1019.29
2018-06-23T05:52:18.572Z,1019.32
2018-06-23T05:53:18.553Z,1019.32
2018-06-23T05:54:18.537Z,1019.30
2018-06-23T05:55:18.517Z,1019.22
2018-06-23T05:56:18.497Z,1019.20
2018-06-23T05:57:18.478Z,1019.20
2018-06-23T05:58:18.459Z,1019.15
2018-06-23T05:59:18.440Z,1019.21
2018-06-23T06:00:18.423Z,1019.22
2018-06-23T06:01:18.406Z,1019.20
2018-06-23T06:02:18.385Z,1019.18
2018-06-23T06:03:18.365Z,1019.24
2018-06-23T06:04:18.350Z,1019.21
2018-06-23T06:05:18.333Z,1019.17
2018-06-23T06:06:18.310Z,1019.21
2018-06-23T06:07:18.297Z,1019.23
2018-06-23T06:08:18.274Z,1019.23
2018-06-23T06:09:18.261Z,1019.26
2018-06-23T06:10:18.249Z,1019.29
2018-06-23T06:11:18.219Z,1019.32
2018-06-23T06:12:18.209Z,1019.25
2018-06-23T06:13:18.185Z,1019.21
2018-06-23T06:14:18.173Z,1019.22
2018-06-23T06:15:18.151Z,1019.20
2018-06-23T06:16:18.151Z,1019.21
2018-06-23T06:17:18.133Z,1019.23
2018-06-23T06:18:18.150Z,1019.27
2018-06-23T06:19:18.100Z,1019.30
2018-06-23T06:20:18.066Z,1019.24
2018-06-23T06:21:18.045Z,1019.16
2018-06-23T06:22:18.045Z,1019.14
2018-06-23T06:23:18.009Z,1019.11
2018-06-23T06:24:17.985Z,1019.15
2018-06-23T06:25:17.966Z,1019.21
2018-06-23T06:26:18.006Z,1019.17
2018-06-23T06:27:17.966Z,1019.18
2018-06-23T06:29:17.892Z,1019.18
2018-06-23T06:30:17.913Z,1019.24
2018-06-23T06:31:18.032Z,1019.25
2018-06-23T06:32:17.868Z,1019.21
2018-06-23T06:33:17.821Z,1019.17
2018-06-23T06:34:17.800Z,1019.20
2018-06-23T06:35:17.780Z,1019.21
2018-06-23T06:36:17.766Z,1019.22
2018-06-23T06:37:17.748Z,1019.23
2018-06-23T06:38:17.729Z,1019.23
2018-06-23T06:39:17.711Z,1019.28
2018-06-23T06:40:17.690Z,1019.27
2018-06-23T06:41:17.674Z,1019.33
2018-06-23T06:42:17.656Z,1019.33
2018-06-23T06:43:17.638Z,1019.35
2018-06-23T06:44:17.619Z,1019.29
2018-06-23T06:45:17.613Z,1019.30
2018-06-23T06:46:17.582Z,1019.28
2018-06-23T06:47:17.572Z,1019.27
2018-06-23T06:48:17.549Z,1019.26
2018-06-23T06:49:17.562Z,1019.33
2018-06-23T06:50:17.513Z,1019.29
2018-06-23T06:51:17.496Z,1019.28
2018-06-23T06:52:17.495Z,1019.32
2018-06-23T06:53:17.462Z,1019.30
2018-06-23T06:54:17.442Z,1019.35
2018-06-23T06:55:17.446Z,1019.38
2018-06-23T06:56:17.442Z,1019.39
2018-06-23T06:57:17.439Z,1019.38
2018-06-23T06:58:17.396Z,1019.38
2018-06-23T06:59:17.400Z,1019.41
2018-06-23T07:00:18.065Z,1019.43
2018-06-23T07:01:17.363Z,1019.38
2018-06-23T07:02:17.310Z,1019.34
2018-06-23T07:03:17.346Z,1019.41
2018-06-23T07:04:17.273Z,1019.36
2018-06-23T07:05:17.261Z,1019.37
2018-06-23T07:06:17.294Z,1019.36
2018-06-23T07:07:17.217Z,1019.30
2018-06-23T07:08:17.214Z,1019.37
2018-06-23T07:09:17.252Z,1019.34
2018-06-23T07:10:17.160Z,1019.33
2018-06-23T07:11:17.167Z,1019.34
2018-06-23T07:12:17.122Z,1019.35
2018-06-23T07:13:17.103Z,1019.31
2018-06-23T07:14:17.089Z,1019.28
2018-06-23T07:15:17.072Z,1019.28
2018-06-23T07:16:17.053Z,1019.25
2018-06-23T07:17:17.049Z,1019.30
2018-06-23T07:18:17.023Z,1019.33
2018-06-23T07:19:17.000Z,1019.29
2018-06-23T07:20:16.981Z,1019.28
2018-06-23T07:21:16.967Z,1019.34
2018-06-23T07:22:16.948Z,1019.28
2018-06-23T07:23:16.932Z,1019.32
2018-06-23T07:24:16.913Z,1019.37
2018-06-23T07:25:16.910Z,1019.28
2018-06-23T07:26:16.879Z,1019.32
2018-06-23T07:27:16.861Z,1019.33
2018-06-23T07:28:16.843Z,1019.34
2018-06-23T07:29:16.824Z,1019.34
2018-06-23T07:30:16.829Z,1019.32
2018-06-23T07:31:16.792Z,1019.34
2018-06-23T07:32:16.782Z,1019.30
2018-06-23T07:33:16.752Z,1019.25
2018-06-23T07:34:16.758Z,1019.28
2018-06-23T07:35:16.949Z,1019.33
2018-06-23T07:36:16.731Z,1019.25
2018-06-23T07:37:16.694Z,1019.24
2018-06-23T07:38:16.696Z,1019.23
2018-06-23T07:39:16.673Z,1019.16
2018-06-23T07:40:16.635Z,1019.12
2018-06-23T07:41:16.616Z,1019.09
2018-06-23T07:42:16.626Z,1019.09
2018-06-23T07:43:16.596Z,1019.08
2018-06-23T07:44:16.565Z,1019.14
2018-06-23T07:45:16.549Z,1019.16
2018-06-23T07:46:16.533Z,1019.20
2018-06-23T07:47:16.514Z,1019.14
2018-06-23T07:48:16.496Z,1019.16
2018-06-23T07:49:16.478Z,1019.18
2018-06-23T07:50:16.461Z,1019.15
2018-06-23T07:51:16.449Z,1019.19
2018-06-23T07:52:16.427Z,1019.15
2018-06-23T07:53:16.412Z,1019.20
2018-06-23T07:54:16.397Z,1019.17
2018-06-23T07:55:16.376Z,1019.15
2018-06-23T07:56:16.448Z,1019.19
2018-06-23T07:57:16.343Z,1019.21
2018-06-23T07:58:16.324Z,1019.17
2018-06-23T07:59:16.313Z,1019.15
2018-06-23T08:00:16.291Z,1019.19
2018-06-23T08:01:16.274Z,1019.17
2018-06-23T08:02:16.257Z,1019.19
2018-06-23T08:03:16.242Z,1019.20
2018-06-23T08:04:16.226Z,1019.18
2018-06-23T08:05:16.208Z,1019.26
2018-06-23T08:06:16.191Z,1019.18
2018-06-23T08:07:16.175Z,1019.13
2018-06-23T08:08:16.159Z,1019.11
2018-06-23T08:09:16.146Z,1019.09
2018-06-23T08:10:16.121Z,1019.10
2018-06-23T08:11:16.107Z,1019.14
2018-06-23T08:12:16.091Z,1019.23
2018-06-23T08:13:16.074Z,1019.18
2018-06-23T08:14:16.066Z,1019.20
2018-06-23T08:15:16.040Z,1019.20
2018-06-23T08:16:16.022Z,1019.21
2018-06-23T08:17:16.005Z,1019.17
2018-06-23T08:18:16.007Z,1019.13
2018-06-23T08:19:15.970Z,1019.12
2018-06-23T08:20:15.956Z,1019.16
2018-06-23T08:21:15.953Z,1019.21
2018-06-23T08:22:15.923Z,1019.14
2018-06-23T08:23:15.904Z,1019.01
2018-06-23T08:24:15.888Z,1019.15
2018-06-23T08:25:15.873Z,1019.12
2018-06-23T08:26:15.884Z,1019.11
2018-06-23T08:27:15.838Z,1019.09
2018-06-23T08:28:15.820Z,1019.01
2018-06-23T08:29:15.801Z,1019.02
2018-06-23T08:30:15.789Z,1019.05
2018-06-23T08:31:15.769Z,1019.12
2018-06-23T08:32:15.753Z,1019.10
2018-06-23T08:33:15.739Z,1019.06
2018-06-23T08:34:15.723Z,1019.12
2018-06-23T08:35:15.706Z,1019.12
2018-06-23T08:36:15.689Z,1019.08
2018-06-23T08:37:15.670Z,1019.11
2018-06-23T08:38:15.657Z,1019.13
2018-06-23T08:39:15.641Z,1019.06
2018-06-23T08:40:15.619Z,1019.14
2018-06-23T08:41:15.604Z,1019.08
2018-06-23T08:42:15.588Z,1019.12
2018-06-23T08:43:15.572Z,1019.09
2018-06-23T08:44:15.554Z,1019.10
2018-06-23T08:45:15.534Z,1019.12
2018-06-23T08:46:15.520Z,1019.15
2018-06-23T08:47:15.504Z,1019.07
2018-06-23T08:48:15.491Z,1019.14
2018-06-23T08:49:15.536Z,1019.13
2018-06-23T08:50:15.455Z,1019.11
2018-06-23T08:51:15.445Z,1019.08
2018-06-23T08:52:15.422Z,1019.02
2018-06-23T08:53:15.404Z,1019.00
2018-06-23T08:54:15.386Z,1018.96
2018-06-23T08:55:15.413Z,1019.01
2018-06-23T08:56:15.358Z,1019.06
2018-06-23T08:57:15.344Z,1019.04
2018-06-23T08:58:15.327Z,1019.05
2018-06-23T08:59:15.304Z,1019.03
2018-06-23T09:00:15.295Z,1019.05
2018-06-23T09:01:15.273Z,1019.16
2018-06-23T09:02:15.278Z,1019.11
2018-06-23T09:03:15.237Z,1019.08
2018-06-23T09:04:15.228Z,1019.07
2018-06-23T09:05:15.266Z,1019.12
2018-06-23T09:06:15.188Z,1019.09
2018-06-23T09:07:15.172Z,1019.07
2018-06-23T09:08:15.197Z,1019.07
2018-06-23T09:09:15.140Z,1019.03
2018-06-23T09:10:15.164Z,1019.12
2018-06-23T09:11:15.178Z,1019.02
2018-06-23T09:12:15.123Z,1019.00
2018-06-23T09:13:15.080Z,1019.00
2018-06-23T09:14:15.055Z,1019.02
2018-06-23T09:15:15.040Z,1019.09
2018-06-23T09:16:15.025Z,1019.06
2018-06-23T09:17:15.007Z,1019.06
2018-06-23T09:18:14.998Z,1019.08
2018-06-23T09:19:14.974Z,1019.07
2018-06-23T09:20:14.956Z,1019.03
2018-06-23T09:21:14.941Z,1019.00
2018-06-23T09:22:14.938Z,1018.95
2018-06-23T09:23:14.955Z,1018.94
2018-06-23T09:24:14.890Z,1018.97
2018-06-23T09:25:14.892Z,1018.95
2018-06-23T09:26:14.891Z,1018.97
2018-06-23T09:27:14.847Z,1019.00
2018-06-23T09:28:14.839Z,1019.03
2018-06-23T09:29:14.814Z,1019.05
2018-06-23T09:30:14.793Z,1019.10
2018-06-23T09:31:14.776Z,1019.10
2018-06-23T09:32:14.758Z,1019.10
2018-06-23T09:33:14.743Z,1019.13
2018-06-23T09:34:14.724Z,1019.16
2018-06-23T09:35:14.709Z,1019.17
2018-06-23T09:36:14.695Z,1019.16
2018-06-23T09:37:14.680Z,1019.16
2018-06-23T09:38:14.660Z,1019.14
2018-06-23T09:39:14.647Z,1019.16
2018-06-23T09:40:14.636Z,1019.18
2018-06-23T09:41:14.612Z,1019.16
2018-06-23T09:42:14.593Z,1019.17
2018-06-23T09:43:14.578Z,1019.14
2018-06-23T09:44:14.571Z,1019.14
2018-06-23T09:45:14.546Z,1019.18
2018-06-23T09:46:14.618Z,1019.17
2018-06-23T09:47:14.514Z,1019.15
2018-06-23T09:48:14.513Z,1019.12
2018-06-23T09:49:14.485Z,1019.10
2018-06-23T09:50:14.466Z,1019.18
2018-06-23T09:51:14.450Z,1019.17
2018-06-23T09:52:14.434Z,1019.16
2018-06-23T09:53:14.418Z,1019.19
2018-06-23T09:54:14.400Z,1019.15
2018-06-23T09:55:14.383Z,1019.14
2018-06-23T09:56:14.385Z,1019.16
2018-06-23T09:57:14.352Z,1019.22
2018-06-23T09:58:14.337Z,1019.27
2018-06-23T09:59:14.320Z,1019.20
2018-06-23T10:00:14.303Z,1019.19
2018-06-23T10:01:14.288Z,1019.19
2018-06-23T10:02:14.275Z,1019.22
2018-06-23T10:03:14.303Z,1019.12
2018-06-23T10:04:14.241Z,1019.18
2018-06-23T10:05:14.222Z,1019.22
2018-06-23T10:06:14.210Z,1019.25
2018-06-23T10:07:14.226Z,1019.15
2018-06-23T10:08:14.179Z,1019.17
2018-06-23T10:09:14.160Z,1019.18
2018-06-23T10:10:14.150Z,1019.16
2018-06-23T10:11:14.130Z,1019.20
2018-06-23T10:12:14.118Z,1019.20
2018-06-23T10:13:14.093Z,1019.23
2018-06-23T10:14:14.079Z,1019.23
2018-06-23T10:15:14.083Z,1019.22
2018-06-23T10:16:14.062Z,1019.24
2018-06-23T10:17:14.045Z,1019.25
2018-06-23T10:18:14.017Z,1019.22
2018-06-23T10:19:14.043Z,1019.19
2018-06-23T10:20:13.994Z,1019.22
2018-06-23T10:21:13.969Z,1019.17
2018-06-23T10:22:13.949Z,1019.19
2018-06-23T10:23:13.933Z,1019.20
2018-06-23T10:24:13.918Z,1019.14
2018-06-23T10:25:13.905Z,1019.17
2018-06-23T10:26:13.890Z,1019.16
2018-06-23T10:27:13.878Z,1019.14
2018-06-23T10:28:13.855Z,1019.14
2018-06-23T10:29:13.839Z,1019.19
2018-06-23T10:30:13.829Z,1019.16
2018-06-23T10:31:13.804Z,1019.09
2018-06-23T10:32:13.789Z,1019.13
2018-06-23T10:33:13.774Z,1019.13
2018-06-23T10:34:13.761Z,1019.15
2018-06-23T10:35:13.743Z,1019.16
2018-06-23T10:36:13.732Z,1019.21
2018-06-23T10:37:13.715Z,1019.20
2018-06-23T10:38:13.732Z,1019.19
2018-06-23T10:39:13.685Z,1019.18
2018-06-23T10:40:13.662Z,1019.16
2018-06-23T10:41:13.653Z,1019.09
2018-06-23T10:42:13.634Z,1019.06
2018-06-23T10:43:13.628Z,1019.06
2018-06-23T10:44:13.604Z,1019.08
2018-06-23T10:45:13.583Z,1018.97
2018-06-23T10:46:13.573Z,1019.04
2018-06-23T10:47:13.553Z,1019.04
2018-06-23T10:48:13.535Z,1019.02
2018-06-23T10:49:13.527Z,1019.05
2018-06-23T10:50:13.555Z,1019.07
2018-06-23T10:51:13.505Z,1019.07
2018-06-23T10:52:13.482Z,1019.03
2018-06-23T10:53:13.460Z,1019.02
2018-06-23T10:54:13.501Z,1018.96
2018-06-23T10:55:13.474Z,1018.99
2018-06-23T10:56:13.413Z,1019.00
2018-06-23T10:57:13.400Z,1019.03
2018-06-23T10:58:13.386Z,1018.98
2018-06-23T10:59:13.367Z,1019.06
2018-06-23T11:00:13.359Z,1019.01
2018-06-23T11:01:13.336Z,1018.98
2018-06-23T11:02:13.333Z,1019.02
2018-06-23T11:03:13.303Z,1019.00
2018-06-23T11:04:13.291Z,1019.00
2018-06-23T11:05:13.272Z,1018.98
2018-06-23T11:06:13.257Z,1018.98
2018-06-23T11:07:13.244Z,1018.96
2018-06-23T11:08:13.231Z,1019.13
2018-06-23T11:09:13.227Z,1019.05
2018-06-23T11:10:13.219Z,1019.03
2018-06-23T11:11:13.186Z,1019.11
2018-06-23T11:12:13.163Z,1019.41
2018-06-23T11:13:13.146Z,1019.15
2018-06-23T11:14:13.132Z,1019.11
2018-06-23T11:15:13.118Z,1019.44
2018-06-23T11:16:13.101Z,1019.13
2018-06-23T11:17:13.123Z,1019.12
2018-06-23T11:18:13.097Z,1019.09
2018-06-23T11:19:13.057Z,1019.05
2018-06-23T11:20:13.047Z,1019.15
2018-06-23T11:21:13.027Z,1019.06
2018-06-23T11:22:13.018Z,1019.12
2018-06-23T11:23:12.999Z,1019.12
2018-06-23T11:24:13.045Z,1019.07
2018-06-23T11:25:12.971Z,1019.08
2018-06-23T11:26:12.980Z,1019.10
2018-06-23T11:27:12.943Z,1019.11
2018-06-23T11:28:12.955Z,1019.08
2018-06-23T11:29:12.917Z,1019.10
2018-06-23T11:30:12.902Z,1019.17
2018-06-23T11:31:12.887Z,1019.26
2018-06-23T11:32:12.931Z,1019.20
2018-06-23T11:33:12.862Z,1019.15
2018-06-23T11:34:12.858Z,1019.15
2018-06-23T11:35:12.840Z,1019.17
2018-06-23T11:36:12.818Z,1019.13
2018-06-23T11:37:12.798Z,1019.22
2018-06-23T11:38:12.787Z,1019.26
2018-06-23T11:39:12.775Z,1019.16
2018-06-23T11:40:12.762Z,1019.18
2018-06-23T11:41:12.792Z,1019.15
2018-06-23T11:42:12.743Z,1019.11
2018-06-23T11:43:12.712Z,1019.14
2018-06-23T11:44:12.709Z,1019.23
2018-06-23T11:45:12.683Z,1019.22
2018-06-23T11:46:12.678Z,1019.25
2018-06-23T11:47:12.661Z,1019.24
2018-06-23T11:48:12.647Z,1019.22
2018-06-23T11:49:12.642Z,1019.23
2018-06-23T11:50:12.616Z,1019.20
2018-06-23T11:51:12.596Z,1019.26
2018-06-23T11:52:12.689Z,1019.22
2018-06-23T11:53:12.607Z,1019.19
2018-06-23T11:54:12.556Z,1019.17
2018-06-23T11:55:12.540Z,1019.19
2018-06-23T11:56:12.535Z,1019.18
2018-06-23T11:57:12.506Z,1019.16
2018-06-23T11:58:12.490Z,1019.18
2018-06-23T11:59:12.476Z,1019.12
2018-06-23T12:00:12.465Z,1019.14
2018-06-23T12:01:12.485Z,1019.12
2018-06-23T12:02:12.431Z,1019.12
2018-06-23T12:03:12.475Z,1019.22
2018-06-23T12:04:12.448Z,1019.10
2018-06-23T12:05:12.388Z,1019.21
2018-06-23T12:06:12.372Z,1019.29